createdAt,value
2023-02-27T00:01:33.953Z,69.96
2023-02-27T00:06:36.385Z,69.90
2023-02-27T00:11:38.586Z,69.90
2023-02-27T00:16:40.272Z,70.36
2023-02-27T00:21:44.438Z,70.09
2023-02-27T00:26:46.223Z,70.21
2023-02-27T00:31:47.951Z,70.34
2023-02-27T00:36:49.938Z,70.38
2023-02-27T00:41:51.712Z,70.61
2023-02-27T00:46:53.421Z,70.63
2023-02-27T00:51:55.232Z,70.57
2023-02-27T00:56:58.826Z,70.60
2023-02-27T01:02:00.551Z,70.73
2023-02-27T01:07:03.724Z,70.82
2023-02-27T01:12:05.793Z,71.13
2023-02-27T01:17:07.536Z,71.00
2023-02-27T01:22:09.243Z,71.47
2023-02-27T01:27:11.184Z,71.29
2023-02-27T01:32:12.946Z,71.48
2023-02-27T01:37:14.780Z,71.31
2023-02-27T01:42:24.343Z,71.27
2023-02-27T01:47:26.166Z,71.70
2023-02-27T01:52:31.281Z,71.28
2023-02-27T01:57:32.975Z,71.80
2023-02-27T02:02:38.692Z,71.52
2023-02-27T02:07:41.874Z,71.43
2023-02-27T02:12:45.072Z,71.55
2023-02-27T02:18:00.091Z,71.60
2023-02-27T02:23:39.640Z,71.80
2023-02-27T02:28:59.780Z,71.85
2023-02-27T02:34:25.737Z,71.85
2023-02-27T02:39:37.530Z,71.80
2023-02-27T02:45:00.142Z,72.08
2023-02-27T02:50:23.964Z,72.16
2023-02-27T02:55:40.864Z,72.15
2023-02-27T03:00:48.934Z,72.12
2023-02-27T03:06:12.841Z,72.24
2023-02-27T03:11:14.754Z,72.10
2023-02-27T03:16:29.803Z,72.25
2023-02-27T03:21:38.957Z,72.43
2023-02-27T03:26:44.652Z,72.26
2023-02-27T03:31:56.606Z,72.05
2023-02-27T03:37:21.996Z,72.38
2023-02-27T03:42:39.507Z,72.56
2023-02-27T03:47:44.396Z,72.32
2023-02-27T03:52:46.507Z,72.53
2023-02-27T03:57:51.779Z,72.61
2023-02-27T04:02:56.213Z,72.50
2023-02-27T04:08:19.111Z,72.54
2023-02-27T04:13:26.788Z,72.80
2023-02-27T04:18:56.661Z,72.58
2023-02-27T04:24:13.615Z,72.76
2023-02-27T04:29:18.614Z,72.90
2023-02-27T04:34:40.962Z,72.95
2023-02-27T04:39:53.389Z,72.93
2023-02-27T04:45:00.594Z,73.23
2023-02-27T04:50:19.571Z,73.33
2023-02-27T04:55:30.319Z,73.06
2023-02-27T05:00:34.641Z,73.20
2023-02-27T05:05:38.325Z,73.04
2023-02-27T05:10:46.772Z,73.25
2023-02-27T05:15:58.168Z,73.41
2023-02-27T05:21:12.496Z,73.24
2023-02-27T05:26:24.262Z,73.25
2023-02-27T05:31:34.426Z,73.50
2023-02-27T05:36:57.234Z,73.50
2023-02-27T05:42:04.821Z,73.35
2023-02-27T05:47:12.892Z,73.50
2023-02-27T05:52:18.179Z,73.31
2023-02-27T05:57:29.009Z,73.65
2023-02-27T06:02:30.893Z,73.34
2023-02-27T06:07:33.848Z,73.41
2023-02-27T06:12:35.638Z,73.35
2023-02-27T06:17:37.371Z,73.19
2023-02-27T06:22:39.045Z,73.22
2023-02-27T06:27:40.873Z,73.84
2023-02-27T06:32:42.593Z,73.29
2023-02-27T06:37:44.539Z,72.66
2023-02-27T06:42:46.610Z,72.51
2023-02-27T06:47:48.304Z,71.99
2023-02-27T06:52:50.110Z,71.93
2023-02-27T06:57:51.781Z,71.99
2023-02-27T07:02:53.582Z,71.39
2023-02-27T07:07:56.632Z,71.91
2023-02-27T07:13:00.344Z,71.44
2023-02-27T07:18:02.663Z,71.20
2023-02-27T07:23:04.814Z,70.76
2023-02-27T07:28:06.777Z,70.43
2023-02-27T07:33:08.818Z,70.35
2023-02-27T07:38:10.634Z,70.19
2023-02-27T07:43:12.685Z,70.33
2023-02-27T07:48:14.393Z,69.74
2023-02-27T07:53:16.178Z,69.91
2023-02-27T07:58:18.187Z,69.32
2023-02-27T08:03:19.871Z,68.98
2023-02-27T08:08:21.920Z,67.82
2023-02-27T08:13:35.947Z,67.79
2023-02-27T08:18:45.246Z,67.09
2023-02-27T08:23:46.948Z,66.27
2023-02-27T08:28:48.993Z,65.92
2023-02-27T08:33:58.035Z,65.64
2023-02-27T08:39:09.520Z,65.34
2023-02-27T08:44:12.908Z,64.81
2023-02-27T08:49:14.949Z,64.73
2023-02-27T08:54:16.964Z,64.04
2023-02-27T08:59:18.820Z,64.20
2023-02-27T09:04:21.017Z,63.81
2023-02-27T09:09:23.764Z,63.44
2023-02-27T09:14:25.811Z,62.51
2023-02-27T09:19:27.619Z,61.54
2023-02-27T09:24:29.500Z,61.83
2023-02-27T09:29:31.285Z,62.22
2023-02-27T09:34:33.364Z,62.41
2023-02-27T09:39:36.250Z,61.88
2023-02-27T09:44:57.625Z,61.91
2023-02-27T09:50:28.530Z,60.47
2023-02-27T09:55:34.974Z,60.19
2023-02-27T10:00:53.726Z,59.44
2023-02-27T10:06:21.384Z,59.64
2023-02-27T10:11:56.810Z,58.87
2023-02-27T10:17:03.788Z,58.17
2023-02-27T10:22:12.695Z,58.86
2023-02-27T10:27:19.281Z,58.77
2023-02-27T10:32:26.838Z,58.69
2023-02-27T10:37:30.362Z,57.75
2023-02-27T10:42:36.284Z,56.81
2023-02-27T10:47:39.683Z,56.31
2023-02-27T10:53:02.078Z,56.25
2023-02-27T10:58:05.006Z,56.26
2023-02-27T11:03:16.829Z,55.48
2023-02-27T11:08:27.362Z,55.33
2023-02-27T11:13:32.242Z,56.21
2023-02-27T11:18:36.049Z,55.14
2023-02-27T11:23:38.426Z,55.56
2023-02-27T11:28:40.277Z,55.39
2023-02-27T11:33:50.774Z,55.01
2023-02-27T11:38:55.133Z,55.07
2023-02-27T11:43:58.105Z,55.02
2023-02-27T11:49:16.696Z,54.20
2023-02-27T11:54:34.672Z,54.62
2023-02-27T11:59:58.320Z,54.68
2023-02-27T12:05:14.361Z,54.29
2023-02-27T12:10:20.579Z,54.31
2023-02-27T12:15:29.453Z,53.81
2023-02-27T12:20:57.568Z,53.46
2023-02-27T12:26:32.938Z,53.26
2023-02-27T12:31:34.707Z,52.13
2023-02-27T12:36:36.644Z,52.54
2023-02-27T12:41:50.463Z,51.94
2023-02-27T12:47:24.496Z,52.33
2023-02-27T12:52:47.938Z,51.55
2023-02-27T12:58:06.991Z,52.41
2023-02-27T13:03:27.731Z,52.09
2023-02-27T13:08:54.286Z,51.50
2023-02-27T13:14:04.022Z,51.36
2023-02-27T13:19:15.254Z,51.56
2023-02-27T13:24:26.197Z,50.96
2023-02-27T13:29:41.254Z,51.09
2023-02-27T13:34:52.355Z,51.04
2023-02-27T13:40:01.189Z,50.79
2023-02-27T13:45:06.619Z,49.91
2023-02-27T13:50:17.081Z,50.39
2023-02-27T13:55:39.993Z,49.95
2023-02-27T14:00:41.707Z,49.97
2023-02-27T14:05:46.274Z,50.11
2023-02-27T14:11:09.353Z,49.27
2023-02-27T14:16:39.760Z,50.01
2023-02-27T14:21:56.520Z,49.55
2023-02-27T14:26:59.556Z,50.10
2023-02-27T14:32:08.875Z,50.40
2023-02-27T14:37:17.148Z,50.43
2023-02-27T14:42:50.035Z,52.28
2023-02-27T14:47:53.010Z,52.47
2023-02-27T14:52:55.471Z,53.09
2023-02-27T14:58:16.080Z,53.28
2023-02-27T15:03:24.216Z,53.26
2023-02-27T15:08:32.732Z,53.71
2023-02-27T15:13:38.155Z,54.07
2023-02-27T15:18:40.664Z,54.08
2023-02-27T15:23:42.503Z,54.32
2023-02-27T15:28:44.376Z,54.20
2023-02-27T15:33:46.374Z,54.25
2023-02-27T15:39:17.257Z,54.23
2023-02-27T15:44:26.239Z,54.38
2023-02-27T15:49:28.040Z,54.50
2023-02-27T15:54:35.152Z,54.63
2023-02-27T15:59:41.927Z,55.01
2023-02-27T16:04:45.745Z,55.13
2023-02-27T16:09:54.517Z,55.06
2023-02-27T16:15:18.057Z,55.52
2023-02-27T16:20:47.612Z,55.34
2023-02-27T16:26:06.383Z,55.82
2023-02-27T16:31:23.511Z,55.88
2023-02-27T16:36:28.602Z,56.27
2023-02-27T16:41:30.438Z,56.64
2023-02-27T16:46:32.150Z,56.57
2023-02-27T16:51:34.810Z,56.66
2023-02-27T16:56:38.736Z,56.98
2023-02-27T17:01:40.697Z,57.39
2023-02-27T17:06:42.352Z,57.25
2023-02-27T17:11:44.092Z,57.09
2023-02-27T17:16:47.356Z,57.17
2023-02-27T17:21:50.484Z,57.31
2023-02-27T17:26:52.626Z,57.38
2023-02-27T17:31:54.765Z,57.39
2023-02-27T17:36:56.483Z,57.40
2023-02-27T17:41:58.155Z,57.39
2023-02-27T17:46:59.841Z,57.57
2023-02-27T17:52:01.674Z,57.59
2023-02-27T17:57:04.871Z,57.60
2023-02-27T18:02:07.913Z,57.70
2023-02-27T18:07:09.674Z,57.86
2023-02-27T18:12:11.420Z,58.10
2023-02-27T18:17:13.212Z,58.11
2023-02-27T18:22:17.984Z,58.14
2023-02-27T18:27:20.236Z,58.10
2023-02-27T18:32:21.979Z,58.28
2023-02-27T18:37:23.746Z,58.39
2023-02-27T18:42:25.472Z,58.29
2023-02-27T18:47:30.264Z,58.33
2023-02-27T18:52:33.224Z,58.47
2023-02-27T18:57:36.480Z,58.28
2023-02-27T19:02:41.743Z,58.76
2023-02-27T19:07:44.000Z,58.73
2023-02-27T19:12:49.754Z,58.88
2023-02-27T19:17:51.450Z,58.77
2023-02-27T19:22:53.646Z,59.02
2023-02-27T19:27:56.952Z,59.21
2023-02-27T19:32:58.757Z,59.31
2023-02-27T19:38:00.422Z,59.50
2023-02-27T19:43:02.263Z,59.55
2023-02-27T19:48:04.171Z,59.50
2023-02-27T19:53:05.883Z,59.58
2023-02-27T19:58:08.032Z,59.67
2023-02-27T20:03:09.942Z,59.65
2023-02-27T20:08:12.084Z,59.87
2023-02-27T20:13:13.904Z,59.86
2023-02-27T20:18:15.572Z,59.61
2023-02-27T20:23:17.740Z,59.00
2023-02-27T20:28:19.842Z,59.55
2023-02-27T20:33:21.521Z,59.68
2023-02-27T20:38:23.282Z,60.21
2023-02-27T20:43:25.052Z,60.30
2023-02-27T20:48:26.738Z,60.08
2023-02-27T20:53:28.445Z,60.14
2023-02-27T20:58:30.603Z,60.21
2023-02-27T21:03:38.634Z,60.46
2023-02-27T21:08:46.733Z,60.43
2023-02-27T21:13:50.015Z,60.73
2023-02-27T21:18:53.572Z,60.51
2023-02-27T21:23:55.915Z,60.73
2023-02-27T21:29:00.787Z,60.58
2023-02-27T21:34:05.606Z,60.92
2023-02-27T21:39:07.807Z,60.89
2023-02-27T21:44:13.237Z,60.98
2023-02-27T21:49:17.614Z,61.11
2023-02-27T21:54:20.408Z,61.06
2023-02-27T21:59:22.188Z,61.20
2023-02-27T22:04:24.394Z,61.27
2023-02-27T22:09:26.093Z,61.71
2023-02-27T22:14:27.979Z,61.68
2023-02-27T22:19:29.639Z,61.50
2023-02-27T22:24:31.608Z,62.02
2023-02-27T22:29:33.290Z,62.24
2023-02-27T22:34:35.054Z,62.24
2023-02-27T22:39:36.859Z,62.17
2023-02-27T22:44:38.534Z,62.29
2023-02-27T22:49:40.248Z,62.21
2023-02-27T22:54:42.017Z,62.47
2023-02-27T22:59:43.689Z,62.42
2023-02-27T23:04:45.379Z,62.74
2023-02-27T23:09:47.082Z,62.79
2023-02-27T23:14:48.781Z,62.62
2023-02-27T23:19:50.438Z,62.68
2023-02-27T23:24:52.290Z,62.60
2023-02-27T23:29:54.197Z,62.90
2023-02-27T23:34:55.974Z,62.96
2023-02-27T23:39:58.040Z,62.90
2023-02-27T23:45:22.713Z,62.88
2023-02-27T23:50:27.875Z,63.00
2023-02-27T23:55:32.400Z,63.33
